Nearby METAR Reports

 

EGFF - Cardiff-Wales Ar, United Kingdom
Distance from station: SW 17km
Updated: 22/10/2018 07:20
Clear
Clear
 Wind from NNW
Wind: NNW 15 km/h
Temperature: 5°C
Wind Chill: 2°C
Dew Point: 3°C
Humidity: 87%
Barometer: 1037 hPa
Clouds: Clear
Visibility: 10 km
2018/10/22 06:20 EGFF 220620Z AUTO 33008KT 9999 NCD 05/03 Q1037
EGDX - St Athan Raf, United Kingdom
Distance from station: SW 20km
Updated: 22/10/2018 06:50
Clear
Clear
 Wind from NW
Wind: NW 9 km/h
Temperature: 8°C
Wind Chill: 6°C
Dew Point: 3°C
Humidity: 71%
Barometer: 1037 hPa
Clouds: Clear
Visibility: 10 km
2018/10/22 05:50 EGDX 220550Z AUTO 31005KT 9999 NCD 08/03 Q1037
 
EGGD - Bristol/Lulsgate, United Kingdom
Distance from station: ESE 37km
Updated: 22/10/2018 07:20
Clear
Clear
 Wind from N
Wind: N 15 km/h
Temperature: 7°C
Wind Chill: 4°C
Dew Point: 5°C
Humidity: 87%
Barometer: 1036 hPa
Clouds: Clear
Visibility: 10 km
2018/10/22 06:20 EGGD 220620Z AUTO 01008KT 9999 NCD 07/05 Q1036
EGDY - Yeovilton (navy), United Kingdom
Distance from station: SE 69km
Updated: 22/10/2018 06:50
Few Clouds
Few Clouds
 Wind from NW
Wind: NW 9 km/h
Temperature: 7°C
Wind Chill: 6°C
Dew Point: 4°C
Humidity: 81%
Barometer: 1036 hPa
Clouds: Few Clouds
Visibility: 10 km
Cloud details: Few Clouds 914 m
2018/10/22 05:50 EGDY 220550Z 32005KT 9999 FEW030 07/04 Q1036 BLU NOSIG